Time;durP1;ratioP1;P1;durP2;ratioP2;P2;SDS_P1;SDS_P2;PMS_P1;PMS_P2;Temp;Humidity;BMP_temperature;BMP_pressure;BME280_temperature;BME280_humidity;BME280_pressure;Samples;Min_cycle;Max_cycle;Signal;HPM_P1;HPM_P2
2022/11/29 00:00:40;;;;;;;29.67;19.17;;;;;;;5.82;100.00;101429.78;4823594;29;20151;-79
2022/11/29 00:03:06;;;;;;;26.83;18.77;;;;;;;5.80;100.00;101428.91;4823583;29;20137;-79
2022/11/29 00:05:34;;;;;;;28.65;20.00;;;;;;;5.83;100.00;101426.28;4823166;29;20026;-79
2022/11/29 00:08:00;;;;;;;38.10;20.40;;;;;;;5.87;100.00;101429.81;4823121;29;20038;-79
2022/11/29 00:10:25;;;;;;;37.80;20.50;;;;;;;5.87;100.00;101429.81;4822883;29;20050;-79
2022/11/29 00:12:51;;;;;;;36.38;21.10;;;;;;;5.88;100.00;101435.06;4807069;29;20038;-79
2022/11/29 00:15:16;;;;;;;45.75;20.23;;;;;;;5.87;100.00;101428.06;4823432;29;20058;-79
2022/11/29 00:17:42;;;;;;;31.10;20.33;;;;;;;5.87;100.00;101430.69;4823259;29;20712;-79
2022/11/29 00:20:09;;;;;;;27.30;17.67;;;;;;;5.84;100.00;101428.06;4823371;29;20041;-79
2022/11/29 00:22:35;;;;;;;37.40;20.33;;;;;;;5.84;100.00;101430.69;4807148;29;20026;-79
2022/11/29 00:25:00;;;;;;;33.75;19.17;;;;;;;5.82;100.00;101438.56;4806957;29;20061;-79
2022/11/29 00:27:26;;;;;;;31.45;18.95;;;;;;;5.81;100.00;101442.06;4806883;29;20121;-79
2022/11/29 00:29:51;;;;;;;31.45;18.70;;;;;;;5.80;100.00;101440.28;4823220;29;20047;-79
2022/11/29 00:32:17;;;;;;;36.22;19.00;;;;;;;5.78;100.00;101443.78;4823134;29;20034;-79
2022/11/29 00:34:42;;;;;;;39.83;18.88;;;;;;;5.76;100.00;101449.03;4823213;29;20060;-79
2022/11/29 00:37:08;;;;;;;34.15;20.00;;;;;;;5.74;100.00;101442.00;4806319;29;20093;-79
2022/11/29 00:39:33;;;;;;;41.13;19.70;;;;;;;5.72;100.00;101439.34;4822960;29;20039;-79
2022/11/29 00:41:59;;;;;;;37.97;17.73;;;;;;;5.70;100.00;101446.34;4806729;29;20046;-79
2022/11/29 00:44:24;;;;;;;54.70;19.90;;;;;;;5.70;100.00;101446.34;4823036;29;20067;-79
2022/11/29 00:46:50;;;;;;;59.33;19.42;;;;;;;5.70;100.00;101446.34;4822937;29;20030;-79
2022/11/29 00:49:15;;;;;;;27.85;18.33;;;;;;;5.71;100.00;101448.13;4823213;29;20042;-79
2022/11/29 00:51:45;;;;;;;31.73;18.30;;;;;;;5.72;100.00;101447.25;4823062;29;20046;-79
2022/11/29 00:54:11;;;;;;;25.67;16.63;;;;;;;5.74;100.00;101453.41;4822917;29;20027;-79
2022/11/29 00:56:36;;;;;;;63.42;19.48;;;;;;;5.74;100.00;101453.41;4806310;29;20057;-79
2022/11/29 00:59:02;;;;;;;31.75;18.63;;;;;;;5.75;100.00;101455.13;4822665;29;20131;-79
2022/11/29 01:01:28;;;;;;;31.10;17.40;;;;;;;5.77;100.00;101445.53;4822682;29;20053;-79
2022/11/29 01:03:53;;;;;;;32.03;18.50;;;;;;;5.79;100.00;101451.69;4822746;29;20387;-79
2022/11/29 01:06:18;;;;;;;104.05;20.88;;;;;;;5.81;100.00;101451.66;4822966;29;20133;-79
2022/11/29 01:08:44;;;;;;;67.57;21.00;;;;;;;5.79;100.00;101453.44;4822670;29;20044;-79
2022/11/29 01:11:20;;;;;;;73.10;20.70;;;;;;;5.81;100.00;101455.19;4805281;29;20058;-79
2022/11/29 01:13:46;;;;;;;37.17;19.40;;;;;;;5.78;100.00;101441.13;4822545;29;20046;-79
2022/11/29 01:16:13;;;;;;;49.13;19.60;;;;;;;5.79;100.00;101448.19;4822723;29;20114;-79
2022/11/29 01:18:39;;;;;;;43.95;19.50;;;;;;;5.77;100.00;101444.66;4822516;29;20034;-79
2022/11/29 01:21:11;;;;;;;41.92;18.48;;;;;;;5.76;100.00;101451.66;4822697;29;20030;-79
2022/11/29 01:23:37;;;;;;;115.68;21.55;;;;;;;5.74;100.00;101448.13;4805990;29;20045;-79
2022/11/29 01:26:08;;;;;;;45.78;19.00;;;;;;;5.72;100.00;101452.50;4821977;29;20046;-80
2022/11/29 01:28:35;;;;;;;74.88;19.05;;;;;;;5.70;100.00;101451.59;4822303;29;20038;-79
2022/11/29 01:31:09;;;;;;;37.10;18.73;;;;;;;5.67;100.00;101454.22;4821915;29;20030;-79
2022/11/29 01:33:35;;;;;;;54.80;17.77;;;;;;;5.65;100.00;101449.81;4822190;29;20038;-79
2022/11/29 01:36:02;;;;;;;24.23;17.63;;;;;;;5.63;100.00;101454.16;4822234;29;20110;-79
2022/11/29 01:38:27;;;;;;;40.03;17.38;;;;;;;5.58;100.00;101452.38;4822420;29;20038;-79
2022/11/29 01:41:11;;;;;;;34.97;17.88;;;;;;;5.57;100.00;101455.88;4805827;29;20060;-79
2022/11/29 01:44:12;;;;;;;28.80;17.83;;;;;;;5.59;100.00;101461.16;4822518;29;20072;-79
2022/11/29 01:46:40;;;;;;;71.20;18.17;;;;;;;5.57;100.00;101461.13;4822164;29;20390;-79
2022/11/29 01:49:37;;;;;;;28.55;18.40;;;;;;;5.54;100.00;101463.75;4818239;29;20027;-79
2022/11/29 01:52:07;;;;;;;29.15;15.98;;;;;;;5.49;100.00;101462.81;4798373;29;20038;-79
2022/11/29 01:54:42;;;;;;;44.17;17.67;;;;;;;5.47;100.00;101471.56;4825895;29;20070;-79
2022/11/29 01:57:08;;;;;;;37.65;18.00;;;;;;;5.43;100.00;101468.00;4809522;29;20045;-79
2022/11/29 01:59:37;;;;;;;48.58;17.48;;;;;;;5.43;100.00;101475.00;4825435;29;20043;-79
2022/11/29 02:02:08;;;;;;;25.95;16.50;;;;;;;5.38;100.00;101474.97;4809129;29;20040;-79
2022/11/29 02:04:35;;;;;;;31.02;18.33;;;;;;;5.38;100.00;101488.09;4809301;29;20407;-79
2022/11/29 02:07:01;;;;;;;36.25;18.45;;;;;;;5.39;100.00;101490.75;4809256;29;20041;-79
2022/11/29 02:09:27;;;;;;;32.40;18.00;;;;;;;5.41;100.00;101487.25;4809083;29;20050;-79
2022/11/29 02:11:58;;;;;;;38.67;18.75;;;;;;;5.42;100.00;101492.53;4824176;29;20050;-79
2022/11/29 02:14:36;;;;;;;59.00;17.77;;;;;;;5.42;100.00;101492.53;4825264;29;20507;-79
2022/11/29 02:17:10;;;;;;;32.55;15.98;;;;;;;5.42;100.00;101494.28;4808788;29;20050;-79
2022/11/29 02:20:01;;;;;;;52.28;16.83;;;;;;;5.43;100.00;101501.28;4825337;29;20062;-79
2022/11/29 02:22:36;;;;;;;47.72;18.33;;;;;;;5.42;100.00;101497.78;4824973;29;20039;-79
2022/11/29 02:25:07;;;;;;;57.65;17.13;;;;;;;5.40;100.00;101491.63;4808679;29;20054;-79
2022/11/29 02:27:51;;;;;;;43.47;15.75;;;;;;;5.40;100.00;101496.88;4808727;29;20138;-79
2022/11/29 02:30:46;;;;;;;44.53;15.30;;;;;;;5.38;100.00;101495.97;4824905;29;20134;-79
2022/11/29 02:33:50;;;;;;;66.30;16.13;;;;;;;5.35;100.00;101493.31;4803426;29;20152;-79
2022/11/29 02:37:07;;;;;;;39.92;16.10;;;;;;;5.33;100.00;101501.19;4753695;30;20048;-79
2022/11/29 02:40:29;;;;;;;28.25;15.48;;;;;;;5.31;100.00;101496.78;4739315;30;20105;-79
2022/11/29 02:43:08;;;;;;;46.35;16.63;;;;;;;5.28;100.00;101496.75;4733110;30;20401;-79
2022/11/29 02:46:05;;;;;;;25.45;15.70;;;;;;;5.26;100.00;101504.59;4733034;30;20060;-79
2022/11/29 02:49:03;;;;;;;24.27;13.13;;;;;;;5.23;100.00;101498.44;4799208;29;20057;-79
2022/11/29 02:51:42;;;;;;;35.70;15.45;;;;;;;5.20;100.00;101498.44;4778536;29;20500;-79
2022/11/29 02:54:33;;;;;;;32.30;14.82;;;;;;;5.18;100.00;101499.28;4824724;29;20349;-79
2022/11/29 02:56:58;;;;;;;;;;;;;;;5.23;100.00;101501.06;4803751;29;20555;-79
2022/11/29 02:59:45;;;;;;;48.38;14.55;;;;;;;5.17;100.00;101502.78;4823238;29;20009;-79
2022/11/29 03:02:26;;;;;;;44.30;14.40;;;;;;;5.17;100.00;101517.66;4824399;29;20061;-79
2022/11/29 03:05:11;;;;;;;26.97;14.23;;;;;;;5.15;100.00;101516.75;4808060;29;20038;-79
2022/11/29 03:08:16;;;;;;;64.38;15.57;;;;;;;5.16;100.00;101522.00;4824486;29;20311;-79
2022/11/29 03:10:54;;;;;;;29.55;14.27;;;;;;;5.15;100.00;101519.38;4797092;29;20448;-79
2022/11/29 03:13:32;;;;;;;25.35;13.30;;;;;;;5.14;100.00;101518.50;4824330;29;20113;-79
2022/11/29 03:16:06;;;;;;;40.42;14.48;;;;;;;5.14;100.00;101522.84;4808053;29;20082;-79
2022/11/29 03:18:59;;;;;;;37.60;13.98;;;;;;;5.15;100.00;101522.00;4824362;29;20042;-79
2022/11/29 03:22:04;;;;;;;78.32;16.77;;;;;;;5.14;100.00;101530.72;4824328;29;20062;-79
2022/11/29 03:24:47;;;;;;;44.33;14.82;;;;;;;5.12;100.00;101540.34;4824515;29;20079;-79
2022/11/29 03:27:19;;;;;;;26.50;13.57;;;;;;;5.13;100.00;101528.97;4824223;29;20102;-75
2022/11/29 03:29:53;;;;;;;48.65;15.00;;;;;;;5.11;100.00;101539.44;4823758;29;20183;-75
2022/11/29 03:32:27;;;;;;;81.40;16.27;;;;;;;5.12;100.00;101540.34;4823824;29;20034;-75
2022/11/29 03:35:01;;;;;;;36.53;14.98;;;;;;;5.10;100.00;101540.31;4823661;29;20048;-74
2022/11/29 03:37:48;;;;;;;58.03;14.75;;;;;;;5.10;100.00;101547.31;4823717;29;20134;-75
2022/11/29 03:40:20;;;;;;;64.00;15.00;;;;;;;5.08;100.00;101543.78;4823605;29;20038;-74
2022/11/29 03:43:19;;;;;;;48.90;15.18;;;;;;;5.09;100.00;101559.53;4823818;29;20041;-75
2022/11/29 03:45:59;;;;;;;33.90;14.02;;;;;;;5.07;100.00;101552.50;4823545;29;20034;-75
2022/11/29 03:48:47;;;;;;;45.47;15.52;;;;;;;5.09;100.00;101564.78;4822922;29;20486;-75
2022/11/29 03:51:20;;;;;;;66.13;15.48;;;;;;;5.07;100.00;101555.13;4821047;29;20042;-75
2022/11/29 03:54:20;;;;;;;106.50;15.95;;;;;;;5.07;100.00;101568.25;4807027;29;20083;-75
2022/11/29 03:56:46;;;;;;;86.20;15.52;;;;;;;5.03;100.00;101571.72;4813173;29;20125;-75
2022/11/29 03:59:12;;;;;;;104.25;15.30;;;;;;;5.01;100.00;101578.69;4823366;29;20441;-75
2022/11/29 04:02:15;;;;;;;121.28;16.08;;;;;;;5.02;100.00;101577.81;4823295;29;20429;-74
2022/11/29 04:04:52;;;;;;;100.53;14.95;;;;;;;4.99;100.00;101580.41;4823326;29;20412;-74
2022/11/29 04:07:45;;;;;;;94.28;14.02;;;;;;;4.98;100.00;101579.53;4823323;29;20073;-74
2022/11/29 04:10:35;;;;;;;94.65;15.57;;;;;;;4.96;100.00;101582.13;4821325;29;20043;-74
2022/11/29 04:13:30;;;;;;;109.15;14.13;;;;;;;4.92;100.00;101577.72;4817649;29;20130;-75
2022/11/29 04:16:37;;;;;;;86.35;14.20;;;;;;;4.91;100.00;101575.94;4806827;29;20053;-74
2022/11/29 04:19:24;;;;;;;96.10;13.43;;;;;;;4.85;100.00;101575.88;4803378;29;20144;-74
2022/11/29 04:22:15;;;;;;;93.28;14.18;;;;;;;4.81;100.00;101578.44;4806672;29;20026;-75
2022/11/29 04:25:14;;;;;;;52.75;13.10;;;;;;;4.76;100.00;101585.38;4806708;29;20038;-74
2022/11/29 04:28:05;;;;;;;121.75;14.57;;;;;;;4.72;100.00;101587.06;4823310;29;20458;-75
2022/11/29 04:31:03;;;;;;;96.43;13.05;;;;;;;4.75;100.00;101595.00;4799196;29;20115;-74
2022/11/29 04:33:57;;;;;;;106.90;14.43;;;;;;;4.72;100.00;101600.16;4806372;29;20487;-75
2022/11/29 04:37:04;;;;;;;69.47;12.68;;;;;;;4.66;100.00;101594.84;4806692;29;20042;-75
2022/11/29 04:39:38;;;;;;;127.50;14.10;;;;;;;4.62;100.00;101600.91;4751183;30;20046;-74
2022/11/29 04:42:09;;;;;;;106.00;12.85;;;;;;;4.57;100.00;101592.09;4816818;29;20509;-74
2022/11/29 04:44:35;;;;;;;;;;;;;;;4.61;100.00;101599.16;4806755;29;20054;-74
2022/11/29 04:47:36;;;;;;;56.45;12.10;;;;;;;4.57;100.00;101611.31;4823045;29;19912;-74
2022/11/29 04:50:16;;;;;;;88.95;13.43;;;;;;;4.61;100.00;101609.66;4822880;29;20046;-75
2022/11/29 04:52:50;;;;;;;53.58;12.43;;;;;;;4.63;100.00;101608.81;4806268;29;20042;-75
2022/11/29 04:55:40;;;;;;;51.00;12.32;;;;;;;4.67;100.00;101615.88;4806273;29;20113;-75
2022/11/29 04:58:14;;;;;;;83.10;12.13;;;;;;;4.66;100.00;101610.59;4806413;29;20042;-74
2022/11/29 05:00:59;;;;;;;48.45;12.90;;;;;;;4.69;100.00;101615.88;4805976;29;20046;-75
2022/11/29 05:03:36;;;;;;;69.60;13.85;;;;;;;4.70;100.00;101618.53;4806108;29;20046;-75
2022/11/29 05:06:12;;;;;;;125.25;15.38;;;;;;;4.70;100.00;101626.41;4806045;29;20038;-75
2022/11/29 05:08:47;;;;;;;34.47;13.38;;;;;;;4.68;100.00;101620.25;4806017;29;20038;-75
2022/11/29 05:11:19;;;;;;;44.60;12.82;;;;;;;4.68;100.00;101625.50;4805475;29;20114;-74
2022/11/29 05:14:11;;;;;;;74.95;14.70;;;;;;;4.72;100.00;101634.28;4819755;29;20125;-74
2022/11/29 05:16:52;;;;;;;63.95;14.55;;;;;;;4.73;100.00;101641.31;4822497;29;20038;-74
2022/11/29 05:19:32;;;;;;;62.45;15.27;;;;;;;4.76;100.00;101643.97;4822662;29;20117;-74
2022/11/29 05:22:10;;;;;;;63.22;15.07;;;;;;;4.75;100.00;101647.47;4805989;29;20034;-74
2022/11/29 05:24:50;;;;;;;21.77;13.20;;;;;;;4.74;100.00;101646.56;4822338;29;20395;-75
2022/11/29 05:27:38;;;;;;;44.42;13.95;;;;;;;4.73;100.00;101652.69;4822615;29;20061;-74
2022/11/29 05:30:06;;;;;;;49.40;13.93;;;;;;;4.76;100.00;101653.59;4790563;29;20035;-74
2022/11/29 05:32:55;;;;;;;16.63;11.68;;;;;;;4.80;100.00;101650.13;4822481;29;20149;-74
2022/11/29 05:36:00;;;;;;;68.05;16.38;;;;;;;4.82;100.00;101657.19;4822187;29;20050;-74
2022/11/29 05:38:55;;;;;;;66.45;16.83;;;;;;;4.83;100.00;101655.47;4805638;29;20152;-74
2022/11/29 05:41:44;;;;;;;91.60;18.30;;;;;;;4.83;100.00;101653.72;4822458;29;20061;-74
2022/11/29 05:44:22;;;;;;;74.35;19.20;;;;;;;4.86;100.00;101658.13;4821980;29;20048;-75
2022/11/29 05:46:53;;;;;;;82.78;17.08;;;;;;;4.86;100.00;101664.25;4822161;29;20035;-75
2022/11/29 05:49:37;;;;;;;86.47;17.85;;;;;;;4.85;100.00;101665.13;4815684;29;20050;-74
2022/11/29 05:52:21;;;;;;;135.20;18.73;;;;;;;4.83;100.00;101672.06;4822107;29;20042;-74
2022/11/29 05:55:05;;;;;;;54.60;16.50;;;;;;;4.82;100.00;101678.19;4805567;29;20034;-74
2022/11/29 05:57:34;;;;;;;55.38;15.63;;;;;;;4.82;100.00;101680.81;4822140;29;20039;-74
2022/11/29 06:00:01;;;;;;;97.03;16.08;;;;;;;4.84;100.00;101683.44;4805218;29;20066;-74
2022/11/29 06:02:52;;;;;;;68.65;17.15;;;;;;;4.84;100.00;101678.19;4822250;29;20038;-74
2022/11/29 06:05:28;;;;;;;71.07;15.05;;;;;;;4.82;100.00;101680.81;4805499;29;20042;-74
2022/11/29 06:08:09;;;;;;;48.40;15.88;;;;;;;4.84;100.00;101689.56;4821618;29;20039;-75
2022/11/29 06:10:38;;;;;;;37.67;15.77;;;;;;;4.85;100.00;101693.97;4819500;29;20038;-74
2022/11/29 06:13:07;;;;;;;38.60;16.02;;;;;;;4.86;100.00;101700.97;4805098;29;20038;-74
2022/11/29 06:15:42;;;;;;;55.70;17.02;;;;;;;4.86;100.00;101698.34;4821425;29;20049;-74
2022/11/29 06:18:42;;;;;;;63.83;16.67;;;;;;;4.86;100.00;101700.97;4821472;29;20042;-74
2022/11/29 06:21:31;;;;;;;57.53;16.33;;;;;;;4.92;100.00;101708.06;4806044;29;20046;-74
2022/11/29 06:24:21;;;;;;;84.38;16.00;;;;;;;4.93;100.00;101704.59;4790159;29;20378;-75
2022/11/29 06:26:54;;;;;;;66.85;17.15;;;;;;;4.94;100.00;101708.97;4821548;29;20458;-74
2022/11/29 06:29:50;;;;;;;93.47;16.90;;;;;;;4.96;100.00;101709.88;4824151;29;20042;-74
2022/11/29 06:32:46;;;;;;;80.70;17.67;;;;;;;4.99;100.00;101719.53;4821621;29;20054;-74
2022/11/29 06:35:33;;;;;;;59.03;16.90;;;;;;;4.99;100.00;101728.28;4821943;29;20102;-75
2022/11/29 06:38:09;;;;;;;27.45;15.73;;;;;;;5.02;100.00;101724.84;4824823;29;20627;-74
2022/11/29 06:40:35;;;;;;;87.18;18.27;;;;;;;5.01;100.00;101731.84;4824870;29;20494;-74
2022/11/29 06:43:01;;;;;;;55.65;16.75;;;;;;;5.00;100.00;101737.97;4784678;29;20053;-74
2022/11/29 06:45:27;;;;;;;72.43;17.08;;;;;;;4.98;100.00;101733.53;4824399;29;20046;-74
2022/11/29 06:48:00;;;;;;;57.08;16.20;;;;;;;4.96;100.00;101736.13;4825245;29;20038;-75
2022/11/29 06:50:47;;;;;;;81.22;15.90;;;;;;;4.93;100.00;101746.59;4819725;29;20454;-75
2022/11/29 06:53:30;;;;;;;82.28;16.85;;;;;;;4.90;100.00;101749.19;4827327;29;20108;-74
2022/11/29 06:56:14;;;;;;;45.15;15.55;;;;;;;4.92;100.00;101753.59;4824334;29;20447;-74
2022/11/29 06:58:56;;;;;;;81.82;16.90;;;;;;;4.93;100.00;101752.72;4807554;29;20053;-75
2022/11/29 07:01:38;;;;;;;;;;;;;;;4.99;100.00;101762.41;4824900;29;20499;-74
2022/11/29 07:04:26;;;;;;;100.95;16.15;;;;;;;4.96;100.00;101762.38;4824195;29;20330;-74
2022/11/29 07:06:52;;;;;;;56.28;15.93;;;;;;;4.93;100.00;101768.47;4824156;29;20045;-74
2022/11/29 07:09:21;;;;;;;34.90;14.05;;;;;;;4.92;100.00;101760.56;4824024;29;20050;-74
2022/11/29 07:11:47;;;;;;;108.95;19.02;;;;;;;4.92;100.00;101761.47;4822211;29;20475;-74
2022/11/29 07:14:13;;;;;;;115.55;19.63;;;;;;;4.89;100.00;101776.25;4807557;29;20050;-74
2022/11/29 07:16:45;;;;;;;154.52;21.17;;;;;;;4.86;100.00;101779.72;4825631;29;20529;-74
2022/11/29 07:19:37;;;;;;;100.53;19.40;;;;;;;4.86;100.00;101779.72;4823539;29;20126;-75
2022/11/29 07:22:11;;;;;;;47.92;16.73;;;;;;;4.89;100.00;101782.38;4823582;29;20163;-74
2022/11/29 07:25:02;;;;;;;77.22;16.17;;;;;;;4.89;100.00;101782.38;4830246;29;20091;-74
2022/11/29 07:27:44;;;;;;;79.22;16.10;;;;;;;4.91;100.00;101782.44;4826117;29;20042;-74
2022/11/29 07:30:10;;;;;;;64.80;16.08;;;;;;;4.92;100.00;101782.47;4823260;29;20038;-74
2022/11/29 07:33:07;;;;;;;61.20;16.10;;;;;;;4.92;100.00;101787.72;4823638;29;20050;-74
2022/11/29 07:36:02;;;;;;;66.57;16.70;;;;;;;4.94;100.00;101796.47;4823671;29;20061;-75
2022/11/29 07:38:49;;;;;;;46.30;15.38;;;;;;;4.96;100.00;101800.00;4807346;29;20038;-74
2022/11/29 07:41:35;;;;;;;76.68;16.42;;;;;;;5.00;100.00;101802.72;4823520;29;20087;-74
2022/11/29 07:44:15;;;;;;;72.30;16.95;;;;;;;4.99;100.00;101793.91;4823592;29;20037;-75
2022/11/29 07:46:41;;;;;;;77.80;16.42;;;;;;;5.01;100.00;101801.84;4807190;29;20053;-74
2022/11/29 07:49:09;;;;;;;126.10;17.90;;;;;;;5.01;100.00;101802.72;4827501;29;20049;-74
2022/11/29 07:51:35;;;;;;;105.75;18.25;;;;;;;5.02;100.00;101814.09;4834057;29;20058;-74
2022/11/29 07:54:01;;;;;;;139.27;18.75;;;;;;;5.01;100.00;101813.22;4829896;29;20046;-74
2022/11/29 07:56:26;;;;;;;129.68;19.00;;;;;;;5.01;100.00;101810.59;4823445;29;20539;-75
2022/11/29 07:58:52;;;;;;;89.82;17.48;;;;;;;5.03;100.00;101815.88;4823364;29;20487;-75
2022/11/29 08:01:17;;;;;;;125.20;19.88;;;;;;;5.04;100.00;101809.75;4823532;29;20046;-75
2022/11/29 08:03:43;;;;;;;80.32;17.58;;;;;;;5.04;100.00;101815.00;4823614;29;20062;-75
2022/11/29 08:06:08;;;;;;;90.65;18.55;;;;;;;5.05;100.00;101811.53;4806602;29;20126;-75
2022/11/29 08:08:34;;;;;;;120.70;18.50;;;;;;;5.03;100.00;101808.88;4823320;29;20206;-75
2022/11/29 08:10:59;;;;;;;60.17;16.67;;;;;;;5.06;100.00;101814.16;4822070;29;20078;-75
2022/11/29 08:13:25;;;;;;;59.78;16.27;;;;;;;5.06;100.00;101818.53;4791700;29;20057;-75
2022/11/29 08:15:50;;;;;;;79.50;18.08;;;;;;;5.07;100.00;101810.72;4806588;29;20038;-75
2022/11/29 08:18:16;;;;;;;50.67;18.40;;;;;;;5.12;100.00;101821.28;4823469;29;20514;-75
2022/11/29 08:20:42;;;;;;;51.42;19.60;;;;;;;5.14;100.00;101822.16;4823800;29;20121;-75
2022/11/29 08:23:10;;;;;;;65.68;18.42;;;;;;;5.18;100.00;101824.00;4807173;29;20570;-75
2022/11/29 08:25:36;;;;;;;45.63;17.00;;;;;;;5.19;100.00;101825.75;4823234;29;20076;-75
2022/11/29 08:28:02;;;;;;;55.47;17.85;;;;;;;5.21;100.00;101817.91;4822975;29;20061;-75
2022/11/29 08:30:28;;;;;;;79.63;19.10;;;;;;;5.21;100.00;101818.78;4822766;29;20039;-75
2022/11/29 08:32:54;;;;;;;51.45;19.48;;;;;;;5.25;100.00;101824.97;4806522;29;20036;-75
2022/11/29 08:35:22;;;;;;;77.47;19.05;;;;;;;5.27;100.00;101818.03;4806115;29;20050;-75
2022/11/29 08:37:48;;;;;;;53.05;18.30;;;;;;;5.28;100.00;101825.03;4806289;29;20046;-75
2022/11/29 08:40:15;;;;;;;71.80;19.58;;;;;;;5.31;100.00;101827.69;4822589;29;20064;-75
2022/11/29 08:42:40;;;;;;;69.40;21.92;;;;;;;5.35;100.00;101829.50;4806573;29;20043;-75
2022/11/29 08:45:06;;;;;;;106.72;22.52;;;;;;;5.34;100.00;101831.25;4821330;29;20041;-75
2022/11/29 08:47:35;;;;;;;129.75;22.35;;;;;;;5.37;100.00;101838.31;4805932;29;20106;-75
2022/11/29 08:50:05;;;;;;;88.07;21.80;;;;;;;5.37;100.00;101835.69;4815787;29;20034;-75
2022/11/29 08:55:20;;;;;;;74.43;22.15;;;;;;;5.44;100.00;101840.19;4822230;29;20042;-75
2022/11/29 08:57:46;;;;;;;73.72;20.33;;;;;;;5.48;100.00;101841.97;4805373;29;20049;-75
2022/11/29 09:00:12;;;;;;;103.35;22.85;;;;;;;5.53;100.00;101848.16;4821780;29;20050;-75
2022/11/29 09:02:38;;;;;;;115.90;20.63;;;;;;;5.54;100.00;101847.34;4822159;29;20050;-75
2022/11/29 09:05:05;;;;;;;110.72;20.75;;;;;;;5.60;100.00;101846.53;4821898;29;20049;-75
2022/11/29 09:07:31;;;;;;;192.57;24.88;;;;;;;5.65;100.00;101854.47;4822251;29;20499;-75
2022/11/29 09:09:56;;;;;;;136.35;23.25;;;;;;;5.68;100.00;101860.66;4820070;29;20056;-75
2022/11/29 09:12:22;;;;;;;115.22;23.05;;;;;;;5.72;100.00;101859.84;4822066;29;20057;-75
2022/11/29 09:14:47;;;;;;;124.18;22.52;;;;;;;5.73;100.00;101863.34;4805423;29;20121;-76
2022/11/29 09:17:13;;;;;;;108.50;23.00;;;;;;;5.75;100.00;101865.13;4805438;29;20133;-76
2022/11/29 09:19:38;;;;;;;106.68;24.35;;;;;;;5.76;100.00;101869.56;4790531;29;20474;-76
2022/11/29 09:22:04;;;;;;;108.60;23.92;;;;;;;5.81;100.00;101872.22;4805354;29;20053;-76
2022/11/29 09:24:30;;;;;;;116.38;21.92;;;;;;;5.85;100.00;101881.06;4821967;29;20042;-76
2022/11/29 09:26:55;;;;;;;73.78;21.60;;;;;;;5.92;100.00;101885.53;4822020;29;20551;-76
2022/11/29 09:29:21;;;;;;;76.05;22.65;;;;;;;5.94;100.00;101887.34;4805478;29;20129;-75
2022/11/29 09:31:46;;;;;;;95.72;21.92;;;;;;;5.97;100.00;101890.03;4805514;29;20046;-76
2022/11/29 09:34:13;;;;;;;81.50;22.13;;;;;;;6.01;100.00;101891.84;4805228;29;20058;-76
2022/11/29 09:36:39;;;;;;;76.03;20.52;;;;;;;6.07;100.00;101892.78;4805429;29;20137;-76
2022/11/29 09:39:04;;;;;;;81.00;21.30;;;;;;;6.11;100.00;101899.84;4821840;29;20129;-76
2022/11/29 09:41:33;;;;;;;69.38;21.10;;;;;;;6.16;100.00;101898.19;4790628;29;20125;-76
2022/11/29 09:44:20;;;;;;;77.93;21.55;;;;;;;6.19;100.00;101906.97;4821765;29;20030;-76
2022/11/29 09:47:23;;;;;;;105.78;22.50;;;;;;;6.24;100.00;101910.56;4811449;29;20038;-76
2022/11/29 09:50:20;;;;;;;77.35;21.25;;;;;;;6.25;100.00;101908.78;4821284;29;20480;-76
2022/11/29 09:53:19;;;;;;;64.75;20.75;;;;;;;6.31;100.00;101918.53;4821489;29;20128;-76
2022/11/29 09:56:15;;;;;;;77.22;23.50;;;;;;;6.34;100.00;101915.94;4821690;29;20042;-76
2022/11/29 09:59:04;;;;;;;83.97;22.40;;;;;;;6.31;100.00;101908.91;4811224;29;20083;-75
2022/11/29 10:01:40;;;;;;;69.70;21.00;;;;;;;6.32;100.00;101907.13;4805230;29;20060;-76
2022/11/29 10:04:29;;;;;;;81.82;19.90;;;;;;;6.38;100.00;101916.00;4821432;29;20432;-73
2022/11/29 10:07:32;;;;;;;53.35;19.67;;;;;;;6.42;100.00;101915.16;4809142;29;20141;-73
2022/11/29 10:10:14;;;;;;;65.55;17.27;;;;;;;6.44;100.00;101915.19;4776626;29;20623;-74
2022/11/29 10:12:47;;;;;;;62.92;18.27;;;;;;;6.45;100.00;101911.69;4817548;29;20411;-74
2022/11/29 10:15:21;;;;;;;63.47;18.92;;;;;;;6.50;100.00;101914.38;4824439;29;20118;-73
2022/11/29 10:17:55;;;;;;;52.95;18.63;;;;;;;6.53;100.00;101915.31;4824559;29;20038;-74
2022/11/29 10:20:24;;;;;;;65.07;17.85;;;;;;;6.55;100.00;101907.41;4824415;29;20118;-73
2022/11/29 10:23:33;;;;;;;64.30;16.63;;;;;;;6.54;100.00;101908.28;4824733;29;20393;-73
2022/11/29 10:25:59;;;;;;;44.05;16.58;;;;;;;6.59;100.00;101903.97;4800195;29;20517;-73
2022/11/29 10:28:29;;;;;;;50.45;16.65;;;;;;;6.60;100.00;101897.81;4808407;29;20033;-73
2022/11/29 10:31:15;;;;;;;65.77;16.83;;;;;;;6.60;100.00;101903.06;4824265;29;20180;-74
2022/11/29 10:33:43;;;;;;;59.28;18.35;;;;;;;6.58;100.00;101910.09;4824601;29;20038;-74
2022/11/29 10:36:26;;;;;;;48.83;17.00;;;;;;;6.57;100.00;101903.06;4824065;29;20038;-74
2022/11/29 10:38:58;;;;;;;46.28;16.77;;;;;;;6.58;100.00;101907.47;4807884;29;20046;-74
2022/11/29 10:41:24;;;;;;;77.32;18.20;;;;;;;6.58;100.00;101910.09;4824327;29;20034;-73
2022/11/29 10:43:51;;;;;;;61.10;19.40;;;;;;;6.60;100.00;101903.06;4824229;29;20627;-74
2022/11/29 10:46:27;;;;;;;54.78;17.38;;;;;;;6.63;100.00;101906.66;4807796;29;20090;-74
2022/11/29 10:48:53;;;;;;;69.18;18.63;;;;;;;6.63;100.00;101904.03;4823781;29;20100;-74
2022/11/29 10:51:19;;;;;;;57.25;19.35;;;;;;;6.63;100.00;101911.03;4808368;29;20051;-74
2022/11/29 10:53:45;;;;;;;57.22;18.38;;;;;;;6.66;100.00;101916.31;4807648;29;20042;-74
2022/11/29 10:56:13;;;;;;;54.15;18.65;;;;;;;6.66;100.00;101913.69;4823939;29;20496;-73
2022/11/29 10:58:54;;;;;;;75.55;19.33;;;;;;;6.67;100.00;101920.72;4824093;29;20038;-74
2022/11/29 11:01:20;;;;;;;67.75;19.85;;;;;;;6.66;100.00;101917.22;4823830;29;20042;-74
2022/11/29 11:03:54;;;;;;;61.92;18.60;;;;;;;6.66;100.00;101917.22;4807445;29;20065;-74
2022/11/29 11:06:21;;;;;;;70.80;18.67;;;;;;;6.68;100.00;101911.97;4824013;29;20115;-74
2022/11/29 11:09:10;;;;;;;74.97;19.75;;;;;;;6.67;100.00;101923.34;4823615;29;20053;-73
2022/11/29 11:11:37;;;;;;;84.32;19.92;;;;;;;6.67;100.00;101920.72;4791319;29;20099;-74
2022/11/29 11:14:20;;;;;;;64.40;21.45;;;;;;;6.71;100.00;101919.00;4823805;29;20111;-73
2022/11/29 11:16:45;;;;;;;66.47;20.52;;;;;;;6.70;100.00;101915.50;4807246;29;20046;-74
2022/11/29 11:19:30;;;;;;;55.85;19.50;;;;;;;6.73;100.00;101919.91;4823849;29;20124;-74
2022/11/29 11:21:58;;;;;;;73.75;20.88;;;;;;;6.73;100.00;101915.53;4806899;29;20075;-74
2022/11/29 11:24:27;;;;;;;62.63;20.90;;;;;;;6.74;100.00;101911.16;4807481;29;20043;-74
2022/11/29 11:26:53;;;;;;;59.25;19.25;;;;;;;6.75;100.00;101913.81;4823661;29;20042;-74
2022/11/29 11:29:23;;;;;;;86.70;20.02;;;;;;;6.77;100.00;101916.44;4807186;29;20069;-74
2022/11/29 11:31:56;;;;;;;59.95;18.48;;;;;;;6.78;100.00;101923.50;4823769;29;20031;-74
2022/11/29 11:34:36;;;;;;;59.60;20.05;;;;;;;6.78;100.00;101921.72;4823937;29;20054;-76
2022/11/29 11:37:20;;;;;;;54.40;19.50;;;;;;;6.82;100.00;101927.91;4823894;29;20480;-76
2022/11/29 11:39:51;;;;;;;76.35;20.33;;;;;;;6.81;100.00;101929.66;4823993;29;20080;-76
2022/11/29 11:42:36;;;;;;;99.13;20.75;;;;;;;6.78;100.00;101934.03;4807061;29;20046;-76
2022/11/29 11:45:08;;;;;;;64.97;21.60;;;;;;;6.76;100.00;101930.47;4807214;29;20038;-76
2022/11/29 11:47:41;;;;;;;64.53;20.90;;;;;;;6.77;100.00;101937.50;4807313;29;20046;-76
2022/11/29 11:50:16;;;;;;;57.67;21.27;;;;;;;6.81;100.00;101945.44;4817319;29;20038;-76
2022/11/29 11:52:51;;;;;;;81.05;22.40;;;;;;;6.83;100.00;101937.59;4807462;29;20125;-76